Aérodrome :
LOGIN :

S'inscrire | Disclaimer

   EN    FR    IT 

 










Légende :    VFR   VFR Marginal   IFR   IFR Intensif   IFR Très Intensif
Visi : 
Plafond : 
>= 8 km
>= 3000ft
5 à 8 km
1000 à 3000 ft
1500m à 5 km
500 à 1000 ft
800 à 1500m
200 à 500 ft
< 800m
< 200 ft
Symboles :   Orages  Brouillard  Fortes neiges  Fortes précipitations  Vent > 20 kt
SIGMETs :   Divers  Orages  Givrage  Turbulence  Onde Orograph.  Cendres Volcan.







- Altitude de l'aérodrome : 913 ft
- Voir les cartes d'approche


LFSX - Luxeuil

DERNIER METAR :
  • 250430Z AUTO 09004KT 9999 NCD 10/09 Q1015

METARs EXPIRÉS :
  • 250400Z AUTO 07004KT 9999 NCD 10/10 Q1015
  • 250330Z AUTO 09004KT 9999 NCD 10/10 Q1015
  • 250300Z AUTO 08003KT 9999 NCD 10/10 Q1015
  • 250230Z AUTO 13003KT 9999 FEW049/// SCT074/// 10/09 Q1015
  • 250200Z AUTO 10002KT 9999 BKN049/// BKN058/// OVC072/// 11/10 Q1015

TAF AMD TAF LFSX
Valide du 25 à 05h jusqu'au 26 à 03h UTC


250430Z 2505/2603 VRB02KT 9999 SCT049
BECMG 2507/2509 25012KT
TEMPO 2510/2518 BKN040TCU
Pas de NOTAMs connus pour ce terrain.



MET'MAP, la Météo Aéronautique d'un coup d'oeil ! - Copyright ORBIFLY Décembre 2007 - Disclaimer

ORBIFLY MET'MAP TEAM :

Programmation & Développement : Alexandra Zaïnal
Conception & Développement : Baudouin d'Aumeries
Co-Programmation & Développement : Marc-Olivier Méhu
Soutien technique & logistique : Manuel Goepfert

Contact : metmap@orbifly.com




SOURCES & CREDITS :

   NOAA